sensor_id;sensor_type;location;lat;lon;timestamp;temperature;humidity
43999;DHT22;51319;52.162;5.302;2023-08-01T00:01:35;16.40;99.90
43999;DHT22;51319;52.162;5.302;2023-08-01T00:04:02;16.40;99.90
43999;DHT22;51319;52.162;5.302;2023-08-01T00:06:29;16.40;99.90
43999;DHT22;51319;52.162;5.302;2023-08-01T00:08:56;16.30;99.90
43999;DHT22;51319;52.162;5.302;2023-08-01T00:11:23;16.30;99.90
43999;DHT22;51319;52.162;5.302;2023-08-01T00:13:50;16.40;99.90
43999;DHT22;51319;52.162;5.302;2023-08-01T00:16:17;16.40;99.90
43999;DHT22;51319;52.162;5.302;2023-08-01T00:18:44;16.40;99.90
43999;DHT22;51319;52.162;5.302;2023-08-01T00:21:11;16.40;99.90
43999;DHT22;51319;52.162;5.302;2023-08-01T00:23:38;16.30;99.90
43999;DHT22;51319;52.162;5.302;2023-08-01T00:26:05;16.30;99.90
43999;DHT22;51319;52.162;5.302;2023-08-01T00:28:32;16.30;99.90
43999;DHT22;51319;52.162;5.302;2023-08-01T00:31:06;16.20;99.90
43999;DHT22;51319;52.162;5.302;2023-08-01T00:33:35;16.10;99.90
43999;DHT22;51319;52.162;5.302;2023-08-01T00:36:02;16.10;99.90
43999;DHT22;51319;52.162;5.302;2023-08-01T00:38:30;16.00;99.90
43999;DHT22;51319;52.162;5.302;2023-08-01T00:40:57;16.00;99.90
43999;DHT22;51319;52.162;5.302;2023-08-01T00:43:23;16.00;99.90
43999;DHT22;51319;52.162;5.302;2023-08-01T00:45:51;16.00;99.90
43999;DHT22;51319;52.162;5.302;2023-08-01T00:48:19;16.00;99.90
43999;DHT22;51319;52.162;5.302;2023-08-01T00:50:47;15.90;99.90
43999;DHT22;51319;52.162;5.302;2023-08-01T00:53:14;15.90;99.90
43999;DHT22;51319;52.162;5.302;2023-08-01T00:55:41;15.90;99.90
43999;DHT22;51319;52.162;5.302;2023-08-01T00:58:08;15.80;99.90
43999;DHT22;51319;52.162;5.302;2023-08-01T01:00:35;15.80;99.90
43999;DHT22;51319;52.162;5.302;2023-08-01T01:03:03;15.70;99.90
43999;DHT22;51319;52.162;5.302;2023-08-01T01:05:35;15.70;99.90
43999;DHT22;51319;52.162;5.302;2023-08-01T01:08:03;15.60;99.90
43999;DHT22;51319;52.162;5.302;2023-08-01T01:10:31;15.60;99.90
43999;DHT22;51319;52.162;5.302;2023-08-01T01:12:58;15.50;99.90
43999;DHT22;51319;52.162;5.302;2023-08-01T01:15:25;15.50;99.90
43999;DHT22;51319;52.162;5.302;2023-08-01T01:17:52;15.50;99.90
43999;DHT22;51319;52.162;5.302;2023-08-01T01:20:23;15.40;99.90
43999;DHT22;51319;52.162;5.302;2023-08-01T01:22:52;15.40;99.90
43999;DHT22;51319;52.162;5.302;2023-08-01T01:25:21;15.40;99.90
43999;DHT22;51319;52.162;5.302;2023-08-01T01:27:49;15.30;99.90
43999;DHT22;51319;52.162;5.302;2023-08-01T01:30:19;15.30;99.90
43999;DHT22;51319;52.162;5.302;2023-08-01T01:32:47;15.30;99.90
43999;DHT22;51319;52.162;5.302;2023-08-01T01:35:15;15.20;99.90
43999;DHT22;51319;52.162;5.302;2023-08-01T01:37:42;15.20;99.90
43999;DHT22;51319;52.162;5.302;2023-08-01T01:40:09;15.20;99.90
43999;DHT22;51319;52.162;5.302;2023-08-01T01:42:37;15.20;99.90
43999;DHT22;51319;52.162;5.302;2023-08-01T01:45:04;15.10;99.90
43999;DHT22;51319;52.162;5.302;2023-08-01T01:47:31;15.10;99.90
43999;DHT22;51319;52.162;5.302;2023-08-01T01:49:58;15.10;99.90
43999;DHT22;51319;52.162;5.302;2023-08-01T01:52:25;15.10;99.90
43999;DHT22;51319;52.162;5.302;2023-08-01T01:54:52;15.10;99.90
43999;DHT22;51319;52.162;5.302;2023-08-01T01:57:18;15.10;99.90
43999;DHT22;51319;52.162;5.302;2023-08-01T01:59:45;15.00;99.90
43999;DHT22;51319;52.162;5.302;2023-08-01T02:02:12;15.00;99.90
43999;DHT22;51319;52.162;5.302;2023-08-01T02:04:39;15.00;99.90
43999;DHT22;51319;52.162;5.302;2023-08-01T02:07:06;15.00;99.90
43999;DHT22;51319;52.162;5.302;2023-08-01T02:09:33;14.90;99.90
43999;DHT22;51319;52.162;5.302;2023-08-01T02:12:00;14.90;99.90
43999;DHT22;51319;52.162;5.302;2023-08-01T02:14:27;14.90;99.90
43999;DHT22;51319;52.162;5.302;2023-08-01T02:16:54;14.90;99.90
43999;DHT22;51319;52.162;5.302;2023-08-01T02:19:21;14.90;99.90
43999;DHT22;51319;52.162;5.302;2023-08-01T02:21:48;14.90;99.90
43999;DHT22;51319;52.162;5.302;2023-08-01T02:24:15;15.00;99.90
43999;DHT22;51319;52.162;5.302;2023-08-01T02:26:41;15.10;99.90
43999;DHT22;51319;52.162;5.302;2023-08-01T02:29:09;15.20;99.90
43999;DHT22;51319;52.162;5.302;2023-08-01T02:31:35;15.20;99.90
43999;DHT22;51319;52.162;5.302;2023-08-01T02:34:02;15.30;99.90
43999;DHT22;51319;52.162;5.302;2023-08-01T02:36:29;15.40;99.90
43999;DHT22;51319;52.162;5.302;2023-08-01T02:38:56;15.40;99.90
43999;DHT22;51319;52.162;5.302;2023-08-01T02:41:23;15.40;99.90
43999;DHT22;51319;52.162;5.302;2023-08-01T02:43:50;15.40;99.90
43999;DHT22;51319;52.162;5.302;2023-08-01T02:46:17;15.40;99.90
43999;DHT22;51319;52.162;5.302;2023-08-01T02:48:44;15.40;99.90
43999;DHT22;51319;52.162;5.302;2023-08-01T02:51:11;15.40;99.90
43999;DHT22;51319;52.162;5.302;2023-08-01T02:53:38;15.40;99.90
43999;DHT22;51319;52.162;5.302;2023-08-01T02:56:08;15.40;99.90
43999;DHT22;51319;52.162;5.302;2023-08-01T02:58:37;15.40;99.90
43999;DHT22;51319;52.162;5.302;2023-08-01T03:01:07;15.40;99.90
43999;DHT22;51319;52.162;5.302;2023-08-01T03:03:37;15.40;99.90
43999;DHT22;51319;52.162;5.302;2023-08-01T03:06:04;15.40;99.90
43999;DHT22;51319;52.162;5.302;2023-08-01T03:08:31;15.40;99.90
43999;DHT22;51319;52.162;5.302;2023-08-01T03:10:58;15.40;99.90
43999;DHT22;51319;52.162;5.302;2023-08-01T03:13:25;15.40;99.90
43999;DHT22;51319;52.162;5.302;2023-08-01T03:15:52;15.40;99.90
43999;DHT22;51319;52.162;5.302;2023-08-01T03:18:18;15.40;99.90
43999;DHT22;51319;52.162;5.302;2023-08-01T03:20:45;15.40;99.90
43999;DHT22;51319;52.162;5.302;2023-08-01T03:23:13;15.40;99.90
43999;DHT22;51319;52.162;5.302;2023-08-01T03:25:40;15.40;99.90
43999;DHT22;51319;52.162;5.302;2023-08-01T03:28:07;15.50;99.90
43999;DHT22;51319;52.162;5.302;2023-08-01T03:30:34;15.50;99.90
43999;DHT22;51319;52.162;5.302;2023-08-01T03:33:01;15.50;99.90
43999;DHT22;51319;52.162;5.302;2023-08-01T03:35:29;15.50;99.90
43999;DHT22;51319;52.162;5.302;2023-08-01T03:37:56;15.50;99.90
43999;DHT22;51319;52.162;5.302;2023-08-01T03:40:23;15.50;99.90
43999;DHT22;51319;52.162;5.302;2023-08-01T03:42:50;15.40;99.90
43999;DHT22;51319;52.162;5.302;2023-08-01T03:45:17;15.40;99.90
43999;DHT22;51319;52.162;5.302;2023-08-01T03:47:44;15.40;99.90
43999;DHT22;51319;52.162;5.302;2023-08-01T03:50:11;15.40;99.90
43999;DHT22;51319;52.162;5.302;2023-08-01T03:52:40;15.30;99.90
43999;DHT22;51319;52.162;5.302;2023-08-01T03:55:07;15.30;99.90
43999;DHT22;51319;52.162;5.302;2023-08-01T03:57:34;15.20;99.90
43999;DHT22;51319;52.162;5.302;2023-08-01T04:00:01;15.20;99.90
43999;DHT22;51319;52.162;5.302;2023-08-01T04:02:30;15.20;99.90
43999;DHT22;51319;52.162;5.302;2023-08-01T04:04:57;15.10;99.90
43999;DHT22;51319;52.162;5.302;2023-08-01T04:07:24;15.20;99.90
43999;DHT22;51319;52.162;5.302;2023-08-01T04:09:51;15.20;99.90
43999;DHT22;51319;52.162;5.302;2023-08-01T04:12:18;15.30;99.90
43999;DHT22;51319;52.162;5.302;2023-08-01T04:14:45;15.30;99.90
43999;DHT22;51319;52.162;5.302;2023-08-01T04:17:12;15.30;99.90
43999;DHT22;51319;52.162;5.302;2023-08-01T04:19:39;15.40;99.90
43999;DHT22;51319;52.162;5.302;2023-08-01T04:22:05;15.40;99.90
43999;DHT22;51319;52.162;5.302;2023-08-01T04:24:32;15.40;99.90
43999;DHT22;51319;52.162;5.302;2023-08-01T04:26:59;15.40;99.90
43999;DHT22;51319;52.162;5.302;2023-08-01T04:29:26;15.40;99.90
43999;DHT22;51319;52.162;5.302;2023-08-01T04:31:53;15.40;99.90
43999;DHT22;51319;52.162;5.302;2023-08-01T04:34:20;15.40;99.90
43999;DHT22;51319;52.162;5.302;2023-08-01T04:36:47;15.40;99.90
43999;DHT22;51319;52.162;5.302;2023-08-01T04:39:14;15.40;99.90
43999;DHT22;51319;52.162;5.302;2023-08-01T04:41:41;15.40;99.90
43999;DHT22;51319;52.162;5.302;2023-08-01T04:44:08;15.40;99.90
43999;DHT22;51319;52.162;5.302;2023-08-01T04:46:34;15.50;99.90
43999;DHT22;51319;52.162;5.302;2023-08-01T04:49:02;15.50;99.90
43999;DHT22;51319;52.162;5.302;2023-08-01T04:51:29;15.50;99.90
43999;DHT22;51319;52.162;5.302;2023-08-01T04:53:56;15.50;99.90
43999;DHT22;51319;52.162;5.302;2023-08-01T04:56:23;15.60;99.90
43999;DHT22;51319;52.162;5.302;2023-08-01T04:58:50;15.70;99.90
43999;DHT22;51319;52.162;5.302;2023-08-01T05:01:17;15.80;99.90
43999;DHT22;51319;52.162;5.302;2023-08-01T05:03:44;16.00;99.90
43999;DHT22;51319;52.162;5.302;2023-08-01T05:06:11;16.10;99.90
43999;DHT22;51319;52.162;5.302;2023-08-01T05:08:37;16.30;99.90
43999;DHT22;51319;52.162;5.302;2023-08-01T05:11:04;16.30;99.90
43999;DHT22;51319;52.162;5.302;2023-08-01T05:13:32;16.30;99.90
43999;DHT22;51319;52.162;5.302;2023-08-01T05:15:59;16.30;99.90
43999;DHT22;51319;52.162;5.302;2023-08-01T05:18:26;16.20;99.90
43999;DHT22;51319;52.162;5.302;2023-08-01T05:20:53;16.20;99.90
43999;DHT22;51319;52.162;5.302;2023-08-01T05:23:19;16.20;99.90
43999;DHT22;51319;52.162;5.302;2023-08-01T05:25:46;16.20;99.90
43999;DHT22;51319;52.162;5.302;2023-08-01T05:28:13;16.20;99.90
43999;DHT22;51319;52.162;5.302;2023-08-01T05:30:41;16.10;99.90
43999;DHT22;51319;52.162;5.302;2023-08-01T05:33:08;16.10;99.90
43999;DHT22;51319;52.162;5.302;2023-08-01T05:35:35;16.20;99.90
43999;DHT22;51319;52.162;5.302;2023-08-01T05:38:02;16.20;99.90
43999;DHT22;51319;52.162;5.302;2023-08-01T05:40:29;16.20;99.90
43999;DHT22;51319;52.162;5.302;2023-08-01T05:42:56;16.30;99.90
43999;DHT22;51319;52.162;5.302;2023-08-01T05:45:23;16.30;99.90
43999;DHT22;51319;52.162;5.302;2023-08-01T05:47:50;16.40;99.90
43999;DHT22;51319;52.162;5.302;2023-08-01T05:50:17;16.50;99.90
43999;DHT22;51319;52.162;5.302;2023-08-01T05:52:43;16.50;99.90
43999;DHT22;51319;52.162;5.302;2023-08-01T05:55:10;16.50;99.90
43999;DHT22;51319;52.162;5.302;2023-08-01T05:57:37;16.50;99.90
43999;DHT22;51319;52.162;5.302;2023-08-01T06:00:04;16.60;99.90
43999;DHT22;51319;52.162;5.302;2023-08-01T06:02:32;16.60;99.90
43999;DHT22;51319;52.162;5.302;2023-08-01T06:04:58;16.60;99.90
43999;DHT22;51319;52.162;5.302;2023-08-01T06:07:26;16.70;99.90
43999;DHT22;51319;52.162;5.302;2023-08-01T06:09:53;17.00;99.90
43999;DHT22;51319;52.162;5.302;2023-08-01T06:12:20;17.10;99.90
43999;DHT22;51319;52.162;5.302;2023-08-01T06:14:47;17.30;99.90
43999;DHT22;51319;52.162;5.302;2023-08-01T06:17:14;17.40;99.90
43999;DHT22;51319;52.162;5.302;2023-08-01T06:19:42;17.40;99.90
43999;DHT22;51319;52.162;5.302;2023-08-01T06:22:09;17.70;99.90
43999;DHT22;51319;52.162;5.302;2023-08-01T06:24:36;18.10;99.90
43999;DHT22;51319;52.162;5.302;2023-08-01T06:27:03;18.30;99.90
43999;DHT22;51319;52.162;5.302;2023-08-01T06:29:31;18.90;99.90
43999;DHT22;51319;52.162;5.302;2023-08-01T06:31:58;19.50;99.90
43999;DHT22;51319;52.162;5.302;2023-08-01T06:34:25;20.10;99.90
43999;DHT22;51319;52.162;5.302;2023-08-01T06:36:52;20.40;99.90
43999;DHT22;51319;52.162;5.302;2023-08-01T06:39:19;20.80;99.90
43999;DHT22;51319;52.162;5.302;2023-08-01T06:41:47;21.10;99.90
43999;DHT22;51319;52.162;5.302;2023-08-01T06:44:13;21.30;99.90
43999;DHT22;51319;52.162;5.302;2023-08-01T06:46:40;21.50;99.90
43999;DHT22;51319;52.162;5.302;2023-08-01T06:49:08;21.80;99.90
43999;DHT22;51319;52.162;5.302;2023-08-01T06:51:35;22.10;99.90
43999;DHT22;51319;52.162;5.302;2023-08-01T06:54:02;22.30;99.90
43999;DHT22;51319;52.162;5.302;2023-08-01T07:01:49;23.50;97.60
43999;DHT22;51319;52.162;5.302;2023-08-01T07:04:16;23.40;96.80
43999;DHT22;51319;52.162;5.302;2023-08-01T07:06:44;23.40;96.10
43999;DHT22;51319;52.162;5.302;2023-08-01T07:09:10;23.00;96.50
43999;DHT22;51319;52.162;5.302;2023-08-01T07:11:38;22.90;97.30
43999;DHT22;51319;52.162;5.302;2023-08-01T07:14:04;22.40;97.50
43999;DHT22;51319;52.162;5.302;2023-08-01T07:16:31;21.70;98.00
43999;DHT22;51319;52.162;5.302;2023-08-01T07:19:00;21.20;98.50
43999;DHT22;51319;52.162;5.302;2023-08-01T07:21:27;21.30;99.50
43999;DHT22;51319;52.162;5.302;2023-08-01T07:23:55;21.30;99.40
43999;DHT22;51319;52.162;5.302;2023-08-01T07:26:24;22.30;99.70
43999;DHT22;51319;52.162;5.302;2023-08-01T07:28:51;23.00;97.40
43999;DHT22;51319;52.162;5.302;2023-08-01T07:31:18;23.10;96.80
43999;DHT22;51319;52.162;5.302;2023-08-01T07:33:45;23.60;96.40
43999;DHT22;51319;52.162;5.302;2023-08-01T07:46:30;22.20;95.60
43999;DHT22;51319;52.162;5.302;2023-08-01T07:48:58;21.50;96.30
43999;DHT22;51319;52.162;5.302;2023-08-01T07:51:26;20.80;97.10
43999;DHT22;51319;52.162;5.302;2023-08-01T07:53:54;20.40;97.80
43999;DHT22;51319;52.162;5.302;2023-08-01T07:56:21;20.00;98.30
43999;DHT22;51319;52.162;5.302;2023-08-01T07:58:48;20.10;99.80
43999;DHT22;51319;52.162;5.302;2023-08-01T08:01:15;20.60;99.90
43999;DHT22;51319;52.162;5.302;2023-08-01T08:03:42;21.80;99.90
43999;DHT22;51319;52.162;5.302;2023-08-01T08:06:09;22.80;98.10
43999;DHT22;51319;52.162;5.302;2023-08-01T08:08:35;22.90;97.30
43999;DHT22;51319;52.162;5.302;2023-08-01T08:11:03;23.30;95.90
43999;DHT22;51319;52.162;5.302;2023-08-01T08:13:30;22.90;95.00
43999;DHT22;51319;52.162;5.302;2023-08-01T08:15:58;22.20;94.70
43999;DHT22;51319;52.162;5.302;2023-08-01T08:18:25;21.60;95.10
43999;DHT22;51319;52.162;5.302;2023-08-01T08:20:53;21.10;96.10
43999;DHT22;51319;52.162;5.302;2023-08-01T08:23:20;20.90;96.80
43999;DHT22;51319;52.162;5.302;2023-08-01T08:25:47;21.20;97.20
43999;DHT22;51319;52.162;5.302;2023-08-01T08:28:14;21.60;96.60
43999;DHT22;51319;52.162;5.302;2023-08-01T08:30:41;21.40;96.10
43999;DHT22;51319;52.162;5.302;2023-08-01T08:33:08;21.40;96.70
43999;DHT22;51319;52.162;5.302;2023-08-01T08:35:38;22.30;96.60
43999;DHT22;51319;52.162;5.302;2023-08-01T08:38:05;23.60;95.90
43999;DHT22;51319;52.162;5.302;2023-08-01T08:40:33;24.40;92.60
43999;DHT22;51319;52.162;5.302;2023-08-01T08:43:02;24.50;90.70
43999;DHT22;51319;52.162;5.302;2023-08-01T08:45:34;23.50;90.10
43999;DHT22;51319;52.162;5.302;2023-08-01T08:48:09;23.00;91.40
43999;DHT22;51319;52.162;5.302;2023-08-01T08:50:37;23.90;90.80
43999;DHT22;51319;52.162;5.302;2023-08-01T08:55:43;23.80;88.20
43999;DHT22;51319;52.162;5.302;2023-08-01T08:58:14;23.10;89.70
43999;DHT22;51319;52.162;5.302;2023-08-01T09:03:13;22.10;90.90
43999;DHT22;51319;52.162;5.302;2023-08-01T09:05:48;21.60;91.50
43999;DHT22;51319;52.162;5.302;2023-08-01T09:08:20;21.30;91.70
43999;DHT22;51319;52.162;5.302;2023-08-01T09:10:48;22.80;93.30
43999;DHT22;51319;52.162;5.302;2023-08-01T09:13:15;24.80;91.20
43999;DHT22;51319;52.162;5.302;2023-08-01T09:15:42;26.10;87.20
43999;DHT22;51319;52.162;5.302;2023-08-01T09:18:10;26.70;82.60
43999;DHT22;51319;52.162;5.302;2023-08-01T09:20:51;26.20;79.20
43999;DHT22;51319;52.162;5.302;2023-08-01T09:23:18;25.30;77.20
43999;DHT22;51319;52.162;5.302;2023-08-01T09:25:45;24.50;80.00
43999;DHT22;51319;52.162;5.302;2023-08-01T09:28:23;25.20;81.20
43999;DHT22;51319;52.162;5.302;2023-08-01T09:30:53;26.70;78.50
43999;DHT22;51319;52.162;5.302;2023-08-01T09:33:24;27.20;75.40
43999;DHT22;51319;52.162;5.302;2023-08-01T09:35:52;26.80;73.60
43999;DHT22;51319;52.162;5.302;2023-08-01T09:38:20;25.70;74.50
43999;DHT22;51319;52.162;5.302;2023-08-01T09:40:48;25.00;76.00
43999;DHT22;51319;52.162;5.302;2023-08-01T09:43:16;24.30;77.40
43999;DHT22;51319;52.162;5.302;2023-08-01T09:45:53;23.70;78.00
43999;DHT22;51319;52.162;5.302;2023-08-01T09:53:34;23.90;79.90
43999;DHT22;51319;52.162;5.302;2023-08-01T09:56:01;24.40;79.70
43999;DHT22;51319;52.162;5.302;2023-08-01T09:58:33;25.60;78.30
43999;DHT22;51319;52.162;5.302;2023-08-01T10:01:01;27.20;73.60
43999;DHT22;51319;52.162;5.302;2023-08-01T10:03:28;28.80;71.90
43999;DHT22;51319;52.162;5.302;2023-08-01T10:05:56;30.00;67.60
43999;DHT22;51319;52.162;5.302;2023-08-01T10:08:25;30.90;64.70
43999;DHT22;51319;52.162;5.302;2023-08-01T10:10:52;31.30;62.70
43999;DHT22;51319;52.162;5.302;2023-08-01T10:13:24;31.60;59.50
43999;DHT22;51319;52.162;5.302;2023-08-01T10:15:53;31.00;59.80
43999;DHT22;51319;52.162;5.302;2023-08-01T10:18:21;31.70;57.90
43999;DHT22;51319;52.162;5.302;2023-08-01T10:20:51;32.30;56.50
43999;DHT22;51319;52.162;5.302;2023-08-01T10:23:19;32.60;55.80
43999;DHT22;51319;52.162;5.302;2023-08-01T10:25:46;32.80;55.50
43999;DHT22;51319;52.162;5.302;2023-08-01T10:28:14;32.80;54.20
43999;DHT22;51319;52.162;5.302;2023-08-01T10:30:41;33.00;53.80
43999;DHT22;51319;52.162;5.302;2023-08-01T10:33:08;32.80;54.20
43999;DHT22;51319;52.162;5.302;2023-08-01T10:35:40;33.50;53.60
43999;DHT22;51319;52.162;5.302;2023-08-01T10:38:11;33.90;52.80
43999;DHT22;51319;52.162;5.302;2023-08-01T10:40:41;33.90;51.40
43999;DHT22;51319;52.162;5.302;2023-08-01T10:43:22;32.90;51.20
43999;DHT22;51319;52.162;5.302;2023-08-01T10:46:03;32.80;52.50
43999;DHT22;51319;52.162;5.302;2023-08-01T10:48:31;31.30;51.80
43999;DHT22;51319;52.162;5.302;2023-08-01T10:53:40;30.00;52.50
43999;DHT22;51319;52.162;5.302;2023-08-01T10:56:16;29.10;54.90
43999;DHT22;51319;52.162;5.302;2023-08-01T10:58:43;30.50;53.50
43999;DHT22;51319;52.162;5.302;2023-08-01T11:01:13;31.70;52.10
43999;DHT22;51319;52.162;5.302;2023-08-01T11:03:43;32.90;50.60
43999;DHT22;51319;52.162;5.302;2023-08-01T11:06:11;33.60;47.10
43999;DHT22;51319;52.162;5.302;2023-08-01T11:08:41;33.00;46.50
43999;DHT22;51319;52.162;5.302;2023-08-01T11:11:13;31.80;46.70
43999;DHT22;51319;52.162;5.302;2023-08-01T11:13:50;30.80;47.60
43999;DHT22;51319;52.162;5.302;2023-08-01T11:16:17;30.50;50.20
43999;DHT22;51319;52.162;5.302;2023-08-01T11:18:45;31.60;49.40
43999;DHT22;51319;52.162;5.302;2023-08-01T11:21:12;32.20;48.60
43999;DHT22;51319;52.162;5.302;2023-08-01T11:23:40;31.30;47.60
43999;DHT22;51319;52.162;5.302;2023-08-01T11:26:11;29.90;48.30
43999;DHT22;51319;52.162;5.302;2023-08-01T11:28:38;28.60;50.30
43999;DHT22;51319;52.162;5.302;2023-08-01T11:31:12;27.90;52.50
43999;DHT22;51319;52.162;5.302;2023-08-01T11:33:39;28.20;52.90
43999;DHT22;51319;52.162;5.302;2023-08-01T11:36:09;29.40;51.40
43999;DHT22;51319;52.162;5.302;2023-08-01T11:38:36;30.70;50.70
43999;DHT22;51319;52.162;5.302;2023-08-01T11:41:05;32.10;49.10
43999;DHT22;51319;52.162;5.302;2023-08-01T11:43:42;32.70;45.10
43999;DHT22;51319;52.162;5.302;2023-08-01T11:46:09;33.00;46.10
43999;DHT22;51319;52.162;5.302;2023-08-01T11:48:37;33.70;44.30
43999;DHT22;51319;52.162;5.302;2023-08-01T11:51:04;33.90;43.20
43999;DHT22;51319;52.162;5.302;2023-08-01T11:53:31;33.00;43.30
43999;DHT22;51319;52.162;5.302;2023-08-01T11:56:05;33.00;43.70
43999;DHT22;51319;52.162;5.302;2023-08-01T11:58:39;32.60;43.90
43999;DHT22;51319;52.162;5.302;2023-08-01T12:01:11;32.90;44.20
43999;DHT22;51319;52.162;5.302;2023-08-01T12:08:54;33.00;42.30
43999;DHT22;51319;52.162;5.302;2023-08-01T12:11:31;31.20;44.10
43999;DHT22;51319;52.162;5.302;2023-08-01T12:16:29;29.20;47.90
43999;DHT22;51319;52.162;5.302;2023-08-01T12:18:57;28.80;49.10
43999;DHT22;51319;52.162;5.302;2023-08-01T12:21:27;28.70;48.40
43999;DHT22;51319;52.162;5.302;2023-08-01T12:23:54;28.50;49.50
43999;DHT22;51319;52.162;5.302;2023-08-01T12:26:22;29.30;48.60
43999;DHT22;51319;52.162;5.302;2023-08-01T12:28:50;30.70;48.70
43999;DHT22;51319;52.162;5.302;2023-08-01T12:31:21;31.20;46.70
43999;DHT22;51319;52.162;5.302;2023-08-01T12:33:48;31.20;45.90
43999;DHT22;51319;52.162;5.302;2023-08-01T12:36:16;31.70;45.30
43999;DHT22;51319;52.162;5.302;2023-08-01T12:38:45;32.30;45.00
43999;DHT22;51319;52.162;5.302;2023-08-01T12:41:15;32.60;44.30
43999;DHT22;51319;52.162;5.302;2023-08-01T12:43:42;33.20;43.90
43999;DHT22;51319;52.162;5.302;2023-08-01T12:46:09;33.60;44.30
43999;DHT22;51319;52.162;5.302;2023-08-01T12:48:36;33.80;43.40
43999;DHT22;51319;52.162;5.302;2023-08-01T12:51:03;32.80;42.70
43999;DHT22;51319;52.162;5.302;2023-08-01T12:53:30;31.90;43.50
43999;DHT22;51319;52.162;5.302;2023-08-01T12:55:57;32.10;43.80
43999;DHT22;51319;52.162;5.302;2023-08-01T12:58:24;31.50;43.30
43999;DHT22;51319;52.162;5.302;2023-08-01T13:00:51;30.30;44.80
43999;DHT22;51319;52.162;5.302;2023-08-01T13:03:18;29.00;47.70
43999;DHT22;51319;52.162;5.302;2023-08-01T13:05:45;27.70;50.00
43999;DHT22;51319;52.162;5.302;2023-08-01T13:08:12;26.70;52.60
43999;DHT22;51319;52.162;5.302;2023-08-01T13:10:39;26.10;55.00
43999;DHT22;51319;52.162;5.302;2023-08-01T13:13:07;25.70;56.30
43999;DHT22;51319;52.162;5.302;2023-08-01T13:15:34;25.40;57.20
43999;DHT22;51319;52.162;5.302;2023-08-01T13:18:10;25.10;58.70
43999;DHT22;51319;52.162;5.302;2023-08-01T13:20:40;25.00;59.90
43999;DHT22;51319;52.162;5.302;2023-08-01T13:23:07;24.90;60.00
43999;DHT22;51319;52.162;5.302;2023-08-01T13:25:35;25.00;60.30
43999;DHT22;51319;52.162;5.302;2023-08-01T13:28:03;25.40;59.90
43999;DHT22;51319;52.162;5.302;2023-08-01T13:30:31;26.50;58.90
43999;DHT22;51319;52.162;5.302;2023-08-01T13:32:58;27.50;58.70
43999;DHT22;51319;52.162;5.302;2023-08-01T13:35:25;28.30;55.50
43999;DHT22;51319;52.162;5.302;2023-08-01T13:37:55;28.70;54.80
43999;DHT22;51319;52.162;5.302;2023-08-01T13:40:22;29.20;52.30
43999;DHT22;51319;52.162;5.302;2023-08-01T13:42:49;29.60;49.80
43999;DHT22;51319;52.162;5.302;2023-08-01T13:45:18;29.80;48.60
43999;DHT22;51319;52.162;5.302;2023-08-01T13:47:45;30.10;48.60
43999;DHT22;51319;52.162;5.302;2023-08-01T13:50:13;30.10;48.50
43999;DHT22;51319;52.162;5.302;2023-08-01T13:52:41;30.00;48.60
43999;DHT22;51319;52.162;5.302;2023-08-01T13:55:10;29.50;47.60
43999;DHT22;51319;52.162;5.302;2023-08-01T13:57:37;28.90;48.30
43999;DHT22;51319;52.162;5.302;2023-08-01T14:00:06;28.20;49.30
43999;DHT22;51319;52.162;5.302;2023-08-01T14:02:39;27.50;49.90
43999;DHT22;51319;52.162;5.302;2023-08-01T14:05:07;27.10;50.70
43999;DHT22;51319;52.162;5.302;2023-08-01T14:07:37;26.80;51.70
43999;DHT22;51319;52.162;5.302;2023-08-01T14:10:08;26.60;52.60
43999;DHT22;51319;52.162;5.302;2023-08-01T14:12:36;26.20;52.50
43999;DHT22;51319;52.162;5.302;2023-08-01T14:15:04;25.60;53.50
43999;DHT22;51319;52.162;5.302;2023-08-01T14:17:32;25.30;54.60
43999;DHT22;51319;52.162;5.302;2023-08-01T14:19:59;25.10;55.80
43999;DHT22;51319;52.162;5.302;2023-08-01T14:22:26;25.00;56.30
43999;DHT22;51319;52.162;5.302;2023-08-01T14:24:54;25.00;56.90
43999;DHT22;51319;52.162;5.302;2023-08-01T14:27:22;25.00;56.30
43999;DHT22;51319;52.162;5.302;2023-08-01T14:29:53;24.80;57.00
43999;DHT22;51319;52.162;5.302;2023-08-01T14:32:21;24.80;58.10
43999;DHT22;51319;52.162;5.302;2023-08-01T14:34:49;25.00;58.10
43999;DHT22;51319;52.162;5.302;2023-08-01T14:37:16;25.00;58.10
43999;DHT22;51319;52.162;5.302;2023-08-01T14:39:43;24.90;57.90
43999;DHT22;51319;52.162;5.302;2023-08-01T14:42:11;24.70;58.10
43999;DHT22;51319;52.162;5.302;2023-08-01T14:44:38;24.40;58.30
43999;DHT22;51319;52.162;5.302;2023-08-01T14:47:05;24.10;59.30
43999;DHT22;51319;52.162;5.302;2023-08-01T14:49:32;23.80;60.10
43999;DHT22;51319;52.162;5.302;2023-08-01T14:52:00;23.50;60.00
43999;DHT22;51319;52.162;5.302;2023-08-01T14:54:27;23.50;60.20
43999;DHT22;51319;52.162;5.302;2023-08-01T14:57:07;23.30;60.40
43999;DHT22;51319;52.162;5.302;2023-08-01T14:59:34;23.20;61.70
43999;DHT22;51319;52.162;5.302;2023-08-01T15:02:02;22.80;63.20
43999;DHT22;51319;52.162;5.302;2023-08-01T15:04:29;22.40;64.80
43999;DHT22;51319;52.162;5.302;2023-08-01T15:06:56;22.20;66.50
43999;DHT22;51319;52.162;5.302;2023-08-01T15:09:24;22.00;67.70
43999;DHT22;51319;52.162;5.302;2023-08-01T15:11:51;21.80;68.80
43999;DHT22;51319;52.162;5.302;2023-08-01T15:14:18;21.60;69.80
43999;DHT22;51319;52.162;5.302;2023-08-01T15:16:45;21.40;71.00
43999;DHT22;51319;52.162;5.302;2023-08-01T15:19:12;21.20;72.00
43999;DHT22;51319;52.162;5.302;2023-08-01T15:21:39;21.10;73.10
43999;DHT22;51319;52.162;5.302;2023-08-01T15:24:07;20.90;73.80
43999;DHT22;51319;52.162;5.302;2023-08-01T15:26:34;20.80;74.50
43999;DHT22;51319;52.162;5.302;2023-08-01T15:29:02;20.60;75.30
43999;DHT22;51319;52.162;5.302;2023-08-01T15:31:29;20.50;75.80
43999;DHT22;51319;52.162;5.302;2023-08-01T15:33:56;20.40;76.30
43999;DHT22;51319;52.162;5.302;2023-08-01T15:36:28;20.40;76.70
43999;DHT22;51319;52.162;5.302;2023-08-01T15:38:58;20.20;76.70
43999;DHT22;51319;52.162;5.302;2023-08-01T15:41:26;20.20;77.30
43999;DHT22;51319;52.162;5.302;2023-08-01T15:43:53;20.20;78.10
43999;DHT22;51319;52.162;5.302;2023-08-01T15:46:20;20.20;78.40
43999;DHT22;51319;52.162;5.302;2023-08-01T15:49:09;20.40;78.50
43999;DHT22;51319;52.162;5.302;2023-08-01T15:51:37;20.60;79.10
43999;DHT22;51319;52.162;5.302;2023-08-01T15:54:04;20.70;78.90
43999;DHT22;51319;52.162;5.302;2023-08-01T15:56:34;20.90;79.00
43999;DHT22;51319;52.162;5.302;2023-08-01T15:59:02;21.10;79.00
43999;DHT22;51319;52.162;5.302;2023-08-01T16:01:29;21.30;78.70
43999;DHT22;51319;52.162;5.302;2023-08-01T16:03:57;21.40;77.80
43999;DHT22;51319;52.162;5.302;2023-08-01T16:06:24;21.40;77.10
43999;DHT22;51319;52.162;5.302;2023-08-01T16:08:57;21.40;77.00
43999;DHT22;51319;52.162;5.302;2023-08-01T16:11:24;21.40;76.70